Time;durP1;ratioP1;P1;durP2;ratioP2;P2;SDS_P1;SDS_P2;PMS_P1;PMS_P2;Temp;Humidity;BMP_temperature;BMP_pressure;BME280_temperature;BME280_humidity;BME280_pressure;Samples;Min_cycle;Max_cycle;Signal;HPM_P1;HPM_P2
2022/04/27 00:04:51;;;;;;;59.28;31.30;;;;;;;7.82;69.17;100369.28;10337071;28;20541;-80
2022/04/27 00:09:53;;;;;;;48.22;29.77;;;;;;;7.82;68.97;100371.91;10324347;28;20567;-80
2022/04/27 00:14:55;;;;;;;49.55;30.35;;;;;;;7.83;69.07;100373.63;10325152;28;20062;-80
2022/04/27 00:19:57;;;;;;;53.00;31.92;;;;;;;7.85;69.24;100379.59;10321780;28;20098;-80
2022/04/27 00:25:00;;;;;;;46.75;29.48;;;;;;;7.85;69.14;100377.81;10331098;28;20478;-80
2022/04/27 00:30:03;;;;;;;57.83;31.17;;;;;;;7.92;68.84;100370.59;10318916;28;20121;-79
2022/04/27 00:35:08;;;;;;;49.13;30.55;;;;;;;7.76;68.81;100375.63;10339529;28;20400;-80
2022/04/27 00:40:10;;;;;;;50.05;31.33;;;;;;;7.55;69.45;100368.66;10332625;28;20109;-80
2022/04/27 00:45:18;;;;;;;58.78;31.63;;;;;;;7.52;69.18;100371.41;10337035;28;20060;-80
2022/04/27 00:50:20;;;;;;;35.55;24.73;;;;;;;7.50;68.85;100370.63;10338500;28;20610;-80
2022/04/27 00:55:22;;;;;;;90.07;36.13;;;;;;;7.36;69.38;100380.75;10321625;28;20109;-80
2022/04/27 01:00:23;;;;;;;64.05;33.33;;;;;;;7.30;69.45;100386.19;10334133;28;20053;-80
2022/04/27 01:05:25;;;;;;;45.30;27.98;;;;;;;7.22;69.31;100384.78;10328870;28;20147;-80
2022/04/27 01:10:27;;;;;;;58.63;30.73;;;;;;;7.18;69.38;100394.47;10316395;28;20089;-80
2022/04/27 01:15:33;;;;;;;84.95;34.75;;;;;;;7.14;69.59;100398.91;10331807;28;20089;-80
2022/04/27 01:20:37;;;;;;;59.78;31.92;;;;;;;7.11;69.67;100393.00;10329773;28;20054;-80
2022/04/27 01:25:54;;;;;;;90.80;36.13;;;;;;;7.09;69.93;100402.59;10332504;28;20124;-80
2022/04/27 01:30:59;;;;;;;58.97;29.55;;;;;;;7.16;69.53;100393.69;10333340;28;20262;-80
2022/04/27 01:36:04;;;;;;;91.78;33.58;;;;;;;7.16;69.17;100404.09;10336631;28;20054;-80
2022/04/27 01:41:06;;;;;;;62.60;29.48;;;;;;;7.13;69.18;100406.78;10335783;28;20131;-80
2022/04/27 01:46:09;;;;;;;64.75;29.60;;;;;;;7.03;69.27;100413.25;10323449;28;20428;-79
2022/04/27 01:51:11;;;;;;;79.43;29.70;;;;;;;6.91;69.37;100411.09;10332023;28;20133;-80
2022/04/27 01:56:15;;;;;;;55.70;27.65;;;;;;;6.81;69.37;100417.53;10338618;28;20131;-80
2022/04/27 02:01:18;;;;;;;55.97;28.00;;;;;;;6.73;69.53;100416.97;10332131;28;20123;-80
2022/04/27 02:06:20;;;;;;;56.92;27.08;;;;;;;6.60;69.48;100419.16;10325631;28;20137;-80
2022/04/27 02:11:24;;;;;;;62.88;27.75;;;;;;;6.55;69.36;100422.84;10341130;28;20484;-80
2022/04/27 02:16:28;;;;;;;108.93;33.25;;;;;;;6.46;69.64;100423.16;10334720;28;20060;-80
2022/04/27 02:21:31;;;;;;;56.38;26.67;;;;;;;6.43;69.43;100418.09;10329279;28;20064;-80
2022/04/27 02:26:33;;;;;;;1060.18;46.88;;;;;;;6.39;69.52;100422.50;10322687;28;20051;-80
2022/04/27 02:31:35;;;;;;;1633.72;58.55;;;;;;;6.29;69.95;100431.53;10331878;28;20588;-80
2022/04/27 02:36:36;;;;;;;1283.93;51.78;;;;;;;6.26;69.96;100435.09;10338658;28;20124;-80
2022/04/27 02:41:38;;;;;;;1008.67;42.10;;;;;;;6.26;69.56;100432.50;10336175;28;20050;-80
2022/04/27 02:46:40;;;;;;;649.20;30.83;;;;;;;6.14;69.46;100438.06;10331174;28;20070;-80
2022/04/27 02:51:54;;;;;;;381.67;26.02;;;;;;;6.12;69.32;100436.44;10333897;28;20563;-80
2022/04/27 02:56:55;;;;;;;875.70;35.35;;;;;;;6.03;69.77;100444.50;10314711;28;20047;-80
2022/04/27 03:01:57;;;;;;;750.42;33.97;;;;;;;6.02;69.57;100448.84;10333934;28;20050;-80
2022/04/27 03:06:59;;;;;;;863.90;36.78;;;;;;;5.89;69.51;100457.09;10323840;28;20147;-80
2022/04/27 03:12:01;;;;;;;655.03;37.45;;;;;;;5.97;69.65;100449.91;10312349;28;20140;-80
2022/04/27 03:17:03;;;;;;;610.95;35.03;;;;;;;6.11;69.52;100456.34;10322488;28;20574;-80
2022/04/27 03:22:05;;;;;;;492.15;27.83;;;;;;;6.10;70.00;100457.22;10331438;28;20103;-80
2022/04/27 03:27:07;;;;;;;735.38;34.67;;;;;;;6.17;69.89;100457.88;10316599;28;20160;-80
2022/04/27 03:32:11;;;;;;;593.95;29.02;;;;;;;6.24;69.99;100462.84;10336662;28;20499;-80
2022/04/27 03:37:13;;;;;;;526.13;29.13;;;;;;;6.22;69.91;100472.44;10330881;28;20763;-80
2022/04/27 03:42:15;;;;;;;725.05;35.95;;;;;;;6.28;69.75;100472.25;10331761;28;20057;-79
2022/04/27 03:47:17;;;;;;;683.47;32.72;;;;;;;6.31;69.64;100477.34;10328467;28;20475;-80
2022/04/27 03:52:18;;;;;;;665.92;31.92;;;;;;;6.42;69.52;100476.13;10337376;28;20053;-80
2022/04/27 03:57:20;;;;;;;677.33;35.17;;;;;;;6.45;69.43;100483.81;10324519;28;20149;-80
2022/04/27 04:02:22;;;;;;;411.75;21.42;;;;;;;6.34;69.21;100487.63;10321074;28;20133;-79
2022/04/27 04:07:24;;;;;;;789.20;40.08;;;;;;;6.30;69.50;100498.19;10321089;28;20050;-79
2022/04/27 04:12:26;;;;;;;718.45;36.08;;;;;;;6.40;69.50;100503.91;10322293;28;20062;-80
2022/04/27 04:17:28;;;;;;;520.63;36.47;;;;;;;6.46;69.18;100498.50;10318916;28;20585;-80
2022/04/27 04:22:30;;;;;;;460.52;32.33;;;;;;;6.50;69.48;100511.34;10326059;28;20058;-80
2022/04/27 04:32:52;;;;;;;562.17;32.73;;;;;;;6.74;68.75;100517.44;10329453;28;20112;-80
2022/04/27 04:37:54;;;;;;;570.20;33.50;;;;;;;6.77;68.40;100531.19;10322330;28;20112;-80
2022/04/27 04:42:56;;;;;;;796.65;45.67;;;;;;;6.78;68.43;100542.41;10341444;28;20057;-80
2022/04/27 04:47:58;;;;;;;478.10;35.65;;;;;;;6.66;68.63;100541.09;10348119;28;20061;-80
2022/04/27 04:53:00;;;;;;;384.38;36.40;;;;;;;6.77;68.76;100548.53;10334313;28;20531;-80
2022/04/27 04:58:02;;;;;;;473.73;38.92;;;;;;;6.96;68.61;100546.97;10336549;28;21062;-80
2022/04/27 05:03:04;;;;;;;492.67;45.97;;;;;;;7.11;68.45;100549.91;10334449;28;20112;-80
2022/04/27 05:08:08;;;;;;;421.40;44.00;;;;;;;7.21;68.41;100555.63;10335551;28;20460;-81
2022/04/27 05:13:11;;;;;;;465.05;47.10;;;;;;;7.27;68.35;100563.19;10322565;28;20287;-80
2022/04/27 05:18:12;;;;;;;404.15;47.00;;;;;;;7.19;68.31;100567.84;10323752;28;20101;-80
2022/04/27 05:23:16;;;;;;;263.98;39.55;;;;;;;7.33;68.30;100573.38;10328910;28;20058;-80
2022/04/27 05:28:17;;;;;;;514.78;52.80;;;;;;;7.35;68.17;100579.38;10328993;28;20157;-80
2022/04/27 05:33:23;;;;;;;489.95;58.60;;;;;;;7.28;68.32;100584.88;10322680;28;20941;-80
2022/04/27 05:38:25;;;;;;;252.65;47.35;;;;;;;7.26;68.49;100595.34;10343299;28;20054;-80
2022/04/27 05:43:27;;;;;;;173.43;47.97;;;;;;;7.31;68.60;100609.00;10327776;28;20495;-80
2022/04/27 05:48:28;;;;;;;167.52;45.80;;;;;;;7.40;68.65;100603.50;10346160;28;20101;-80
2022/04/27 05:53:30;;;;;;;201.02;48.83;;;;;;;7.69;68.39;100607.63;10326566;28;20054;-80
2022/04/27 05:58:32;;;;;;;100.18;39.92;;;;;;;7.83;67.76;100611.41;10328099;28;20873;-80
2022/04/27 06:03:34;;;;;;;409.67;59.50;;;;;;;7.88;67.59;100626.84;10328515;28;20058;-80
2022/04/27 06:08:36;;;;;;;122.90;36.72;;;;;;;7.86;67.15;100624.31;10327753;28;20054;-80
2022/04/27 06:13:38;;;;;;;67.95;34.90;;;;;;;7.98;67.24;100629.06;10329157;28;20137;-80
2022/04/27 06:18:40;;;;;;;158.32;43.03;;;;;;;8.19;66.89;100635.25;10329946;28;20086;-80
2022/04/27 06:23:42;;;;;;;79.00;33.55;;;;;;;8.17;67.08;100641.41;10328278;28;20171;-81
2022/04/27 06:28:44;;;;;;;275.88;49.78;;;;;;;8.26;67.00;100644.50;10335296;28;20046;-80
2022/04/27 06:33:46;;;;;;;128.63;41.88;;;;;;;8.35;66.70;100651.97;10328094;28;20065;-81
2022/04/27 06:38:48;;;;;;;265.38;52.05;;;;;;;8.28;66.68;100647.06;10325260;28;20057;-80
2022/04/27 06:43:56;;;;;;;137.02;43.08;;;;;;;8.36;66.95;100665.84;10327767;28;20133;-80
2022/04/27 06:48:58;;;;;;;130.70;39.00;;;;;;;8.53;66.43;100664.28;10339713;28;20096;-80
2022/04/27 06:54:00;;;;;;;90.85;41.35;;;;;;;8.50;66.71;100668.78;10323331;28;20113;-80
2022/04/27 06:59:01;;;;;;;137.55;44.95;;;;;;;8.53;66.35;100676.44;10327045;28;20084;-80
2022/04/27 07:04:08;;;;;;;107.70;43.45;;;;;;;8.73;66.34;100681.72;10329401;28;20520;-81
2022/04/27 07:09:11;;;;;;;87.30;42.53;;;;;;;8.79;66.15;100689.31;10315769;28;20064;-80
2022/04/27 07:14:16;;;;;;;75.93;39.28;;;;;;;8.94;65.86;100700.88;10330079;28;20140;-80
2022/04/27 07:19:18;;;;;;;72.03;41.30;;;;;;;8.99;66.02;100699.78;10313769;28;20054;-80
2022/04/27 07:24:20;;;;;;;59.38;36.83;;;;;;;9.18;65.94;100703.31;10316992;28;20077;-80
2022/04/27 07:29:22;;;;;;;46.42;33.20;;;;;;;9.41;65.48;100703.22;10328604;28;20050;-80
2022/04/27 07:34:24;;;;;;;53.13;34.58;;;;;;;9.72;64.89;100707.13;10322836;28;20062;-81
2022/04/27 07:39:26;;;;;;;45.85;34.13;;;;;;;9.96;64.52;100709.50;10312150;28;20051;-81
2022/04/27 07:44:28;;;;;;;51.10;34.55;;;;;;;10.50;63.32;100716.59;10315046;28;20100;-81
2022/04/27 07:49:29;;;;;;;41.33;31.42;;;;;;;10.76;62.89;100710.97;10304875;28;20081;-80
2022/04/27 07:54:31;;;;;;;41.92;32.08;;;;;;;11.17;61.90;100712.41;10330816;28;20068;-80
2022/04/27 07:59:33;;;;;;;39.90;31.33;;;;;;;11.11;61.75;100722.38;10323118;28;20141;-80
2022/04/27 08:04:35;;;;;;;36.92;30.20;;;;;;;11.65;60.32;100719.59;10315113;28;20047;-81
2022/04/27 08:09:37;;;;;;;41.67;30.02;;;;;;;12.08;59.61;100720.78;10329884;28;20118;-80
2022/04/27 08:14:39;;;;;;;34.58;29.27;;;;;;;12.65;57.58;100725.53;10331134;28;20050;-81
2022/04/27 08:19:41;;;;;;;35.75;30.48;;;;;;;12.40;58.36;100730.41;10332688;28;20626;-81
2022/04/27 08:24:43;;;;;;;33.60;28.70;;;;;;;12.18;58.68;100727.25;10313980;28;20054;-81
2022/04/27 08:29:44;;;;;;;31.88;27.27;;;;;;;12.75;57.95;100729.31;10324502;28;20081;-81
2022/04/27 08:34:49;;;;;;;29.33;24.48;;;;;;;14.23;54.65;100720.47;10320257;28;20062;-80
2022/04/27 08:39:51;;;;;;;26.30;23.17;;;;;;;15.01;51.99;100724.25;10326795;28;20844;-80
2022/04/27 08:44:53;;;;;;;29.45;23.77;;;;;;;15.20;52.03;100730.00;10319210;28;20515;-80
2022/04/27 08:49:55;;;;;;;23.83;21.25;;;;;;;15.14;51.38;100730.41;10319774;28;20571;-80
2022/04/27 08:54:59;;;;;;;23.50;21.05;;;;;;;15.51;49.93;100721.75;10325427;28;20490;-80
2022/04/27 09:00:02;;;;;;;26.70;20.08;;;;;;;15.97;49.66;100719.47;10317149;28;20054;-80
2022/04/27 09:05:08;;;;;;;24.27;20.70;;;;;;;15.52;48.52;100722.59;10312831;28;20697;-80
2022/04/27 09:10:12;;;;;;;22.77;19.10;;;;;;;15.35;48.74;100714.00;10315694;28;20050;-80
2022/04/27 09:15:16;;;;;;;21.35;18.58;;;;;;;14.85;49.07;100716.50;10324588;28;20389;-81
2022/04/27 09:25:40;;;;;;;19.25;17.17;;;;;;;15.78;49.14;100711.13;10329888;28;20054;-81
2022/04/27 09:31:03;;;;;;;21.27;15.40;;;;;;;15.86;47.63;100717.56;10328418;28;20068;-80
2022/04/27 09:36:23;;;;;;;18.25;15.63;;;;;;;16.40;46.86;100714.63;10332776;28;20057;-80
2022/04/27 09:41:46;;;;;;;19.33;15.68;;;;;;;16.10;44.66;100715.03;10324760;28;20329;-81
2022/04/27 09:46:47;;;;;;;22.35;15.57;;;;;;;16.06;47.74;100706.47;10321086;28;20116;-80
2022/04/27 09:51:52;;;;;;;17.73;15.02;;;;;;;16.39;46.29;100710.28;10327351;28;20580;-81
2022/04/27 09:56:56;;;;;;;17.70;14.57;;;;;;;16.51;46.34;100699.75;10324722;28;20471;-81
2022/04/27 10:02:05;;;;;;;17.67;13.98;;;;;;;16.76;46.05;100704.09;10319491;28;20117;-80
2022/04/27 10:07:10;;;;;;;22.90;14.50;;;;;;;16.69;44.49;100706.31;10331995;28;20065;-81
2022/04/27 10:12:13;;;;;;;18.30;14.27;;;;;;;16.44;45.82;100705.56;10333330;28;20800;-81
2022/04/27 10:17:15;;;;;;;17.45;12.77;;;;;;;16.42;44.32;100700.38;10327401;28;20519;-81
2022/04/27 10:22:30;;;;;;;17.35;13.23;;;;;;;16.19;45.91;100688.81;10335572;28;20058;-80
2022/04/27 10:27:33;;;;;;;15.10;13.13;;;;;;;16.54;45.38;100691.59;10324915;28;20542;-81
2022/04/27 10:32:46;;;;;;;17.10;12.82;;;;;;;16.17;44.69;100703.06;10328211;28;20065;-80
2022/04/27 10:37:59;;;;;;;16.60;12.65;;;;;;;16.32;44.28;100688.78;10343636;28;20058;-81
2022/04/27 10:43:14;;;;;;;14.60;11.88;;;;;;;16.08;44.76;100694.00;10318220;28;20109;-81
2022/04/27 10:54:06;;;;;;;16.50;11.95;;;;;;;15.95;46.16;100676.50;10322857;28;20496;-81
2022/04/27 10:59:42;;;;;;;97.22;17.38;;;;;;;15.86;45.24;100675.34;10327427;28;20050;-81
2022/04/27 11:04:44;;;;;;;14.00;10.40;;;;;;;16.23;47.26;100668.31;10321128;28;20050;-81
2022/04/27 11:10:10;;;;;;;16.35;11.05;;;;;;;16.11;45.64;100666.56;10331214;28;20647;-80
2022/04/27 11:15:16;;;;;;;13.23;10.10;;;;;;;16.06;46.32;100658.97;10335168;28;20054;-81
2022/04/27 11:20:25;;;;;;;14.55;10.73;;;;;;;16.19;45.08;100659.78;10321618;28;20054;-80
2022/04/27 11:25:33;;;;;;;12.52;10.13;;;;;;;16.11;44.74;100663.91;10310746;28;20449;-80
2022/04/27 11:30:35;;;;;;;10.88;8.45;;;;;;;16.30;44.32;100660.81;10338605;28;20112;-80
2022/04/27 11:35:49;;;;;;;95.32;16.52;;;;;;;16.30;43.11;100655.53;10313309;28;20058;-80
2022/04/27 11:40:53;;;;;;;736.00;70.15;;;;;;;16.28;42.82;100652.16;10332620;28;20058;-80
2022/04/27 11:45:58;;;;;;;13.57;8.18;;;;;;;16.36;43.13;100641.91;10318687;28;20116;-80
2022/04/27 11:51:02;;;;;;;11.98;8.27;;;;;;;16.58;43.11;100640.25;10326117;28;20070;-80
2022/04/27 11:56:03;;;;;;;10.10;7.82;;;;;;;16.78;41.03;100646.69;10320332;28;20525;-80
2022/04/27 12:01:05;;;;;;;10.25;6.10;;;;;;;16.49;39.40;100640.09;10323996;28;20533;-80
2022/04/27 12:06:08;;;;;;;10.38;6.35;;;;;;;16.71;40.04;100645.47;10311282;28;20058;-80
2022/04/27 12:11:09;;;;;;;9.20;5.60;;;;;;;16.92;38.71;100639.44;10318183;28;20121;-80
2022/04/27 12:16:11;;;;;;;7.30;5.72;;;;;;;17.19;40.57;100644.44;10324197;28;20060;-80
2022/04/27 12:21:31;;;;;;;9.23;5.82;;;;;;;17.24;38.47;100633.53;10330211;28;20052;-80
2022/04/27 12:26:40;;;;;;;10.77;5.50;;;;;;;17.28;37.35;100627.88;10323794;28;20061;-80
2022/04/27 12:31:42;;;;;;;10.63;5.88;;;;;;;17.49;37.88;100634.19;10323195;28;20058;-80
2022/04/27 12:42:13;;;;;;;10.00;5.38;;;;;;;17.92;37.79;100626.38;10314864;28;20496;-80
2022/04/27 12:47:16;;;;;;;7.57;5.05;;;;;;;17.91;37.39;100618.59;10331930;28;20563;-81
2022/04/27 12:52:36;;;;;;;7.72;5.80;;;;;;;18.39;36.34;100604.94;10340787;28;20096;-80
2022/04/27 12:57:53;;;;;;;8.90;5.25;;;;;;;18.65;36.29;100602.78;10325885;28;20372;-81
2022/04/27 13:02:55;;;;;;;7.55;5.03;;;;;;;18.93;35.17;100601.34;10330905;28;20169;-81
2022/04/27 13:07:57;;;;;;;6.90;4.28;;;;;;;18.95;34.87;100600.22;10341056;28;20053;-81
2022/04/27 13:12:58;;;;;;;7.78;4.90;;;;;;;18.73;34.35;100586.25;10317490;28;20293;-80
2022/04/27 13:18:00;;;;;;;5.38;4.22;;;;;;;18.88;33.38;100593.75;10317454;28;20105;-80
2022/04/27 13:23:02;;;;;;;6.18;3.60;;;;;;;18.98;34.57;100580.56;10331981;28;20084;-80
2022/04/27 13:28:04;;;;;;;5.88;3.60;;;;;;;18.87;31.35;100585.94;10327850;28;20094;-81
2022/04/27 13:33:06;;;;;;;7.47;3.63;;;;;;;18.69;31.40;100588.31;10333961;28;20124;-81
2022/04/27 13:38:09;;;;;;;5.78;3.45;;;;;;;18.90;30.95;100580.38;10326051;28;20062;-81
2022/04/27 13:43:11;;;;;;;5.47;2.92;;;;;;;18.93;30.55;100574.84;10339514;28;20511;-80
2022/04/27 13:48:13;;;;;;;8.65;3.67;;;;;;;18.92;32.35;100568.69;10332412;28;20112;-80
2022/04/27 13:53:16;;;;;;;6.15;3.65;;;;;;;19.17;32.43;100557.72;10317494;28;20442;-80
2022/04/27 13:58:17;;;;;;;6.28;3.40;;;;;;;19.81;31.25;100562.72;10322202;28;20541;-80
2022/04/27 14:03:39;;;;;;;8.32;3.40;;;;;;;19.97;31.20;100552.47;10328131;28;20058;-81
2022/04/27 14:08:41;;;;;;;5.70;3.20;;;;;;;19.59;29.54;100555.81;10324848;28;20489;-81
2022/04/27 14:13:43;;;;;;;7.35;2.92;;;;;;;19.46;30.83;100555.19;10330621;28;20088;-81
2022/04/27 14:18:45;;;;;;;7.40;3.08;;;;;;;18.89;32.17;100554.84;10326647;28;20294;-81
2022/04/27 14:23:47;;;;;;;6.15;3.25;;;;;;;18.38;32.69;100567.97;10330396;28;20149;-81
2022/04/27 14:28:49;;;;;;;8.73;3.30;;;;;;;18.08;34.55;100560.69;10334706;28;20089;-81
2022/04/27 14:33:51;;;;;;;4.90;2.42;;;;;;;17.97;34.37;100557.22;10326443;28;20062;-81
2022/04/27 14:38:53;;;;;;;4.70;2.95;;;;;;;17.77;32.32;100559.66;10324269;28;20053;-81
2022/04/27 14:43:55;;;;;;;4.53;2.75;;;;;;;18.09;33.79;100556.22;10327011;28;20093;-80
2022/04/27 14:48:57;;;;;;;4.63;2.67;;;;;;;18.68;32.77;100549.53;10335073;28;20100;-80
2022/04/27 14:53:58;;;;;;;3.90;2.40;;;;;;;19.23;32.04;100543.94;10322276;28;20125;-81
2022/04/27 14:59:00;;;;;;;5.65;2.97;;;;;;;19.47;30.25;100546.25;10328867;28;20143;-81
2022/04/27 15:04:03;;;;;;;5.28;2.53;;;;;;;19.32;30.42;100551.09;10333973;28;20120;-81
2022/04/27 15:09:04;;;;;;;4.82;2.70;;;;;;;19.10;30.92;100545.94;10334114;28;20101;-81
2022/04/27 15:14:06;;;;;;;7.20;2.92;;;;;;;18.59;31.72;100558.25;10337953;28;20054;-81
2022/04/27 15:19:08;;;;;;;7.38;2.60;;;;;;;18.15;32.94;100551.28;10319299;28;20152;-81
2022/04/27 15:24:10;;;;;;;7.43;2.72;;;;;;;17.77;34.03;100556.19;10323297;28;20101;-81
2022/04/27 15:29:31;;;;;;;4.03;2.90;;;;;;;17.37;33.86;100562.91;10323854;28;20054;-81
2022/04/27 15:34:35;;;;;;;6.35;2.75;;;;;;;17.47;34.09;100559.44;10309214;28;20101;-81
2022/04/27 15:39:36;;;;;;;5.68;2.90;;;;;;;17.71;34.05;100560.13;10323002;28;20474;-81
2022/04/27 15:44:39;;;;;;;8.05;2.90;;;;;;;17.92;34.09;100554.94;10324107;28;20081;-81
2022/04/27 15:49:41;;;;;;;4.55;2.80;;;;;;;17.97;34.16;100557.22;10323382;28;20321;-81
2022/04/27 15:54:43;;;;;;;5.47;3.13;;;;;;;17.82;35.22;100556.66;10331602;28;20132;-81
2022/04/27 15:59:45;;;;;;;5.72;3.47;;;;;;;17.89;36.24;100562.28;10324031;28;20057;-81
2022/04/27 16:04:46;;;;;;;5.97;3.17;;;;;;;17.85;35.82;100559.06;10340873;28;20560;-80
2022/04/27 16:09:50;;;;;;;7.03;3.00;;;;;;;17.87;35.99;100564.22;10337161;28;20128;-81
2022/04/27 16:14:52;;;;;;;7.78;3.17;;;;;;;18.02;37.03;100570.91;10323430;28;20404;-81
2022/04/27 16:19:56;;;;;;;9.13;3.60;;;;;;;17.53;37.50;100579.25;10318423;28;20328;-81
2022/04/27 16:24:58;;;;;;;9.38;3.67;;;;;;;17.54;37.40;100581.81;10316622;28;20466;-81
2022/04/27 16:29:59;;;;;;;6.00;3.35;;;;;;;17.43;37.63;100578.28;10340282;28;20836;-81
2022/04/27 16:35:21;;;;;;;8.45;3.30;;;;;;;17.53;36.81;100581.91;10289709;28;20069;-81
2022/04/27 16:40:23;;;;;;;8.20;3.30;;;;;;;17.45;37.82;100584.31;10283514;28;20086;-81
2022/04/27 16:45:25;;;;;;;11.23;3.53;;;;;;;17.37;38.34;100587.56;10295852;28;20133;-81
2022/04/27 16:50:27;;;;;;;4.95;3.13;;;;;;;17.45;38.01;100585.16;10291099;28;20082;-80
2022/04/27 16:55:29;;;;;;;6.65;3.05;;;;;;;17.33;37.97;100588.75;10302577;28;20590;-81
2022/04/27 17:05:53;;;;;;;5.18;2.90;;;;;;;17.30;37.65;100588.13;10305432;28;20050;-80
2022/04/27 17:10:55;;;;;;;4.97;2.50;;;;;;;17.32;37.71;100584.41;10297939;28;20082;-81
2022/04/27 17:16:02;;;;;;;5.82;2.67;;;;;;;17.23;37.84;100593.03;10297631;28;20148;-81
2022/04/27 17:21:04;;;;;;;6.13;2.78;;;;;;;17.22;38.23;100590.50;10291263;28;20142;-80
2022/04/27 17:31:27;;;;;;;;;;;;;;;16.66;39.29;100597.44;10283312;28;20073;-81
2022/04/27 17:36:29;;;;;;;6.05;2.80;;;;;;;16.90;39.25;100593.78;10337160;28;19929;-81
2022/04/27 17:41:32;;;;;;;7.32;3.00;;;;;;;16.66;39.96;100592.16;10319664;28;20125;-81
2022/04/27 17:46:33;;;;;;;5.68;2.92;;;;;;;16.51;40.64;100604.69;10327554;28;20928;-81
2022/04/27 17:51:35;;;;;;;7.20;2.97;;;;;;;16.31;41.95;100605.25;10340254;28;20057;-81
2022/04/27 17:56:37;;;;;;;6.25;3.03;;;;;;;16.14;42.43;100609.13;10338270;28;20132;-80
2022/04/27 18:01:39;;;;;;;6.50;3.10;;;;;;;15.89;43.17;100616.28;10328180;28;20152;-80
2022/04/27 18:06:41;;;;;;;5.15;3.30;;;;;;;15.63;44.05;100625.19;10325207;28;20055;-81
2022/04/27 18:11:43;;;;;;;6.60;3.42;;;;;;;15.41;44.69;100631.88;10323891;28;20266;-81
2022/04/27 18:16:45;;;;;;;6.65;3.00;;;;;;;15.22;44.57;100642.00;10320487;28;20058;-80
2022/04/27 18:21:47;;;;;;;9.38;3.30;;;;;;;14.88;45.74;100649.63;10333853;28;20273;-80
2022/04/27 18:26:50;;;;;;;6.32;3.70;;;;;;;14.59;46.24;100651.53;10323156;28;20085;-81
2022/04/27 18:31:53;;;;;;;8.95;3.30;;;;;;;14.37;46.75;100661.72;10323418;28;20058;-81
2022/04/27 18:36:54;;;;;;;7.35;3.35;;;;;;;14.05;47.63;100662.88;10326222;28;20082;-81
2022/04/27 18:41:56;;;;;;;6.85;3.47;;;;;;;13.83;48.55;100660.75;10325772;28;20490;-81
2022/04/27 18:52:21;;;;;;;7.22;3.60;;;;;;;13.53;49.41;100684.50;10339088;28;20046;-80
2022/04/27 18:57:25;;;;;;;8.20;4.13;;;;;;;13.24;50.31;100687.13;10324013;28;20120;-80
2022/04/27 19:02:27;;;;;;;7.30;3.40;;;;;;;13.03;50.80;100693.63;10324873;28;20038;-80
2022/04/27 19:07:32;;;;;;;9.15;3.97;;;;;;;12.89;51.62;100694.41;10326433;28;20058;-80
2022/04/27 19:12:36;;;;;;;8.65;3.88;;;;;;;12.75;51.88;100700.47;10323735;28;20046;-80
2022/04/27 19:17:38;;;;;;;7.03;3.88;;;;;;;12.59;52.13;100702.25;10332474;28;20491;-80
2022/04/27 19:22:39;;;;;;;7.50;4.20;;;;;;;12.52;52.69;100721.03;10315171;28;20329;-80
2022/04/27 19:27:44;;;;;;;10.05;4.75;;;;;;;12.37;53.35;100720.13;10337398;28;20077;-80
2022/04/27 19:32:46;;;;;;;7.45;4.40;;;;;;;12.20;54.09;100727.16;10321393;28;20058;-80
2022/04/27 19:37:49;;;;;;;6.97;5.00;;;;;;;12.07;54.57;100730.44;10314345;28;20061;-80
2022/04/27 19:42:51;;;;;;;7.30;4.70;;;;;;;11.91;55.06;100731.31;10329349;28;20082;-80
2022/04/27 19:47:53;;;;;;;7.40;5.03;;;;;;;11.81;55.41;100740.59;10333716;28;20210;-80
2022/04/27 19:52:56;;;;;;;9.52;5.60;;;;;;;11.63;55.79;100741.53;10325913;28;20046;-80
2022/04/27 19:57:58;;;;;;;8.18;5.82;;;;;;;11.40;55.91;100744.50;10325091;28;20105;-80
2022/04/27 20:03:00;;;;;;;9.35;5.60;;;;;;;11.19;56.69;100742.00;10311071;28;20136;-80
2022/04/27 20:08:02;;;;;;;8.80;5.22;;;;;;;11.05;57.38;100749.69;10320996;28;20104;-80
2022/04/27 20:13:04;;;;;;;14.27;5.88;;;;;;;11.00;57.44;100753.41;10323499;28;20520;-80
2022/04/27 20:18:28;;;;;;;14.90;6.20;;;;;;;10.80;58.39;100764.84;10330816;28;20361;-80
2022/04/27 20:23:30;;;;;;;9.13;6.28;;;;;;;10.67;58.13;100766.34;10341199;28;20140;-80
2022/04/27 20:28:33;;;;;;;9.35;6.20;;;;;;;10.58;58.72;100777.25;10329929;28;20054;-80
2022/04/27 20:33:35;;;;;;;14.23;6.43;;;;;;;10.49;58.90;100770.66;10321630;28;20058;-80
2022/04/27 20:38:37;;;;;;;8.90;6.70;;;;;;;10.34;59.44;100783.56;10322878;28;20054;-80
2022/04/27 20:43:40;;;;;;;11.18;6.43;;;;;;;10.21;59.75;100778.06;10331707;28;20420;-80
2022/04/27 20:48:42;;;;;;;10.98;6.50;;;;;;;10.15;59.93;100786.19;10334355;28;20060;-80
2022/04/27 20:53:45;;;;;;;11.02;6.75;;;;;;;10.05;60.13;100790.13;10332028;28;20113;-81
2022/04/27 20:58:48;;;;;;;9.48;6.63;;;;;;;9.88;60.58;100797.84;10321202;28;20161;-81
2022/04/27 21:03:51;;;;;;;9.02;7.10;;;;;;;9.78;60.32;100798.28;10322132;28;20422;-81
2022/04/27 21:08:53;;;;;;;10.82;6.82;;;;;;;9.43;60.83;100805.81;10325687;28;20049;-81
2022/04/27 21:13:56;;;;;;;10.32;7.30;;;;;;;9.42;61.19;100803.28;10328738;28;20065;-80
2022/04/27 21:19:00;;;;;;;10.48;7.22;;;;;;;9.41;61.38;100807.63;10339831;28;20078;-80
2022/04/27 21:24:02;;;;;;;9.63;6.75;;;;;;;9.35;61.45;100813.13;10333552;28;20058;-80
2022/04/27 21:29:06;;;;;;;10.63;7.45;;;;;;;9.31;61.70;100816.75;10339859;28;20050;-80
2022/04/27 21:34:08;;;;;;;11.32;6.55;;;;;;;9.23;61.68;100817.97;10336998;28;20061;-80
2022/04/27 21:39:15;;;;;;;9.20;7.20;;;;;;;8.87;61.75;100824.66;10328152;28;20152;-80
2022/04/27 21:44:17;;;;;;;9.25;7.22;;;;;;;8.85;62.16;100833.38;10335628;28;20535;-80
2022/04/27 21:49:19;;;;;;;10.43;7.53;;;;;;;8.98;62.11;100846.78;10331832;28;20462;-80
2022/04/27 21:54:20;;;;;;;10.05;7.57;;;;;;;8.90;62.24;100850.59;10333882;28;20086;-80
2022/04/27 21:59:22;;;;;;;9.13;7.43;;;;;;;8.87;62.36;100848.13;10330771;28;20167;-80
2022/04/27 22:04:24;;;;;;;10.23;7.10;;;;;;;8.81;62.59;100862.25;10325008;28;20050;-80
2022/04/27 22:09:31;;;;;;;11.77;8.25;;;;;;;8.68;62.69;100854.03;10319216;28;20062;-80
2022/04/27 22:14:32;;;;;;;9.88;7.63;;;;;;;8.70;62.66;100859.19;10319994;28;20112;-80
2022/04/27 22:19:35;;;;;;;11.43;7.57;;;;;;;8.67;62.53;100856.69;10321045;28;20312;-80
2022/04/27 22:24:37;;;;;;;10.65;7.72;;;;;;;8.60;62.55;100863.03;10335649;28;20458;-81
2022/04/27 22:29:39;;;;;;;11.50;8.25;;;;;;;8.57;62.68;100863.13;10331166;28;20329;-80
2022/04/27 22:34:41;;;;;;;11.85;8.27;;;;;;;8.43;63.19;100863.66;10321551;28;20088;-80
2022/04/27 22:39:44;;;;;;;12.45;8.10;;;;;;;8.39;63.15;100875.09;10331928;28;20100;-80
2022/04/27 22:44:45;;;;;;;14.05;8.60;;;;;;;8.31;63.31;100879.72;10341420;28;20133;-80
2022/04/27 22:49:47;;;;;;;14.18;8.55;;;;;;;8.28;63.30;100885.03;10318520;28;20050;-80
2022/04/27 22:54:49;;;;;;;17.00;8.85;;;;;;;8.21;63.17;100886.19;10330462;28;20356;-80
2022/04/27 22:59:51;;;;;;;10.40;7.50;;;;;;;8.15;63.40;100895.94;10335484;28;20058;-80
2022/04/27 23:04:54;;;;;;;8.80;7.75;;;;;;;8.14;63.43;100889.88;10321901;28;20148;-80
2022/04/27 23:15:36;;;;;;;13.32;8.60;;;;;;;7.87;63.29;100889.06;10280106;28;20342;-80
2022/04/27 23:20:38;;;;;;;10.80;8.13;;;;;;;7.83;63.47;100895.25;10315972;28;20050;-81
2022/04/27 23:25:40;;;;;;;11.00;8.50;;;;;;;7.77;63.74;100895.44;10328271;28;20543;-80
2022/04/27 23:30:42;;;;;;;10.80;7.93;;;;;;;7.78;63.47;100899.78;10337712;28;20085;-80
2022/04/27 23:35:44;;;;;;;11.00;8.98;;;;;;;7.74;63.81;100905.97;10317878;28;20518;-81
2022/04/27 23:40:46;;;;;;;11.27;8.55;;;;;;;7.63;63.88;100891.63;10320877;28;20136;-80
2022/04/27 23:45:49;;;;;;;10.43;8.43;;;;;;;7.53;63.92;100898.84;10317893;28;20097;-80